Terminal Aerodrome Forecast
Issued by NWS Upton, NY

Home | Current Version | Previous Version | Text Only | Print | Product List | Glossary On
Versions: 1 2 3 4 5 6 7 8 9 10 11 12 13 14 15 16 17 18 19 20 21 22 23 24 25 26 27 28
000
FTUS41 KOKX 071233 AAA
TAFBDR
TAF AMD
KBDR 071233Z 0713/0812 10005KT 6SM HZ SCT007 BKN015
      TEMPO 0713/0714 BKN007
     FM071600 18010KT 6SM HZ VCSH SCT015 BKN040
     FM072000 20012KT P6SM BKN050
     FM080100 21008KT P6SM SCT050 BKN250=

USA.gov is the U.S. government's official web portal to all federal, state and local government web resources and services.